»·PEaware :: SWA1289 KLAS-KONT

SWA1289 :: KLAS-KONT

FLIGHT INFORMATION

Flight Status: Arrived
Operator:
Southwest Airlines
More flights by this operator :: More flights under this callsign
Pilot: Sanjiv S. (4490)
Aircraft: BOEING 737-800
(B738)
More flights by this aircraft type
Origin: KLAS McCarran Intl
United States
Destination: KONT Ontario Intl
United States
More flights between these airports :: More routes between these airports
Route: +BOACH8 WHIGG FEYLA EAGLZ2
File this flight plan on PilotEdge
Remarks:
Altitude:
(Current/Filed)
26,000ft
Speed:
(Current/Filed)
425kts
Departed: 25-Aug-18 09:06 PM
Arrived: 25-Aug-18 09:54 PM
Distance/Time
Traveled:
170nm/0:48
Distance/Time
To Go:
Arrived

Flight Plot

Page will automatically refresh every two minutes.

Flight plan parsing failed; only flown route is shown


Map Options




Map Legend


Flown Route
Filed Route
Departure Airport
Arrival Airport
Navaid (VOR, NDB)
Fix

Horizontal Profiles

Position Reports

Time Latitude Longitude Heading Altitude Ground
Speed
25-Aug-18 20:26 36.081629 -115.148257 67 2097ft 0kts
25-Aug-18 20:27 36.081629 -115.148257 67 2097ft 0kts
25-Aug-18 20:28 36.081629 -115.148257 67 2097ft 0kts
25-Aug-18 20:29 36.081629 -115.148257 67 2097ft 0kts
25-Aug-18 20:30 36.081629 -115.148257 67 2097ft 0kts
25-Aug-18 20:31 36.081629 -115.148257 67 2097ft 0kts
25-Aug-18 20:32 36.081629 -115.148257 67 2097ft 0kts
25-Aug-18 20:33 36.081629 -115.148257 67 2097ft 0kts
25-Aug-18 20:34 36.081629 -115.148257 67 2097ft 0kts
25-Aug-18 20:35 36.081629 -115.148257 67 2097ft 0kts
25-Aug-18 20:36 36.081629 -115.148257 67 2097ft 0kts
25-Aug-18 20:37 36.081629 -115.148257 67 2097ft 0kts
25-Aug-18 20:38 36.081629 -115.148257 67 2097ft 0kts
25-Aug-18 20:39 36.081629 -115.148257 67 2097ft 0kts
25-Aug-18 20:40 36.081629 -115.148257 67 2097ft 0kts
25-Aug-18 20:41 36.081629 -115.148257 67 2097ft 0kts
25-Aug-18 20:42 36.081629 -115.148257 67 2097ft 0kts
25-Aug-18 20:43 36.081629 -115.148257 67 2097ft 0kts
25-Aug-18 20:44 36.081629 -115.148257 67 2097ft 0kts
25-Aug-18 20:45 36.081629 -115.148257 67 2097ft 0kts
25-Aug-18 20:46 36.081629 -115.148257 67 2097ft 0kts
25-Aug-18 20:47 36.081629 -115.148257 67 2097ft 0kts
25-Aug-18 20:48 36.081629 -115.148257 67 2097ft 0kts
25-Aug-18 20:49 36.081629 -115.148257 67 2097ft 0kts
25-Aug-18 20:50 36.081629 -115.148257 67 2097ft 0kts
25-Aug-18 20:51 36.081629 -115.148257 67 2097ft 0kts
25-Aug-18 20:52 36.081629 -115.148257 67 2097ft 0kts
25-Aug-18 20:53 36.081629 -115.148257 67 2097ft 0kts
25-Aug-18 20:54 36.081629 -115.148257 67 2097ft 0kts
25-Aug-18 20:55 36.081629 -115.148257 67 2097ft 0kts
25-Aug-18 20:56 36.081629 -115.148257 67 2097ft 0kts
25-Aug-18 20:57 36.081629 -115.148257 67 2097ft 0kts
25-Aug-18 20:58 36.081628 -115.148257 67 2097ft 0kts
25-Aug-18 20:59 36.081672 -115.148789 127 2099ft 2kts
25-Aug-18 21:00 36.081308 -115.148653 155 2099ft 2kts
25-Aug-18 21:01 36.081234 -115.148609 154 2099ft 0kts
25-Aug-18 21:02 36.081234 -115.148609 154 2099ft 0kts
25-Aug-18 21:03 36.080237 -115.148020 155 2099ft 12kts
25-Aug-18 21:04 36.079524 -115.147625 156 2100ft 0kts
25-Aug-18 21:05 36.079524 -115.147625 156 2100ft 0kts
25-Aug-18 21:06 36.078430 -115.146938 136 2101ft 0kts
25-Aug-18 21:07 36.078144 -115.138276 90 2074ft 47kts
25-Aug-18 21:08 36.078217 -115.122753 109 2035ft 16kts
25-Aug-18 21:09 36.077535 -115.121577 130 2037ft 0kts
25-Aug-18 21:10 36.077535 -115.121577 130 2037ft 0kts
25-Aug-18 21:11 36.077534 -115.121576 130 2037ft 0kts
25-Aug-18 21:12 36.076414 -115.121823 267 2038ft 1kts
25-Aug-18 21:13 36.076415 -115.154861 265 2656ft 164kts
25-Aug-18 21:14 36.075698 -115.223305 259 4293ft 245kts
25-Aug-18 21:15 36.025902 -115.278997 200 6978ft 280kts
25-Aug-18 21:16 35.954249 -115.307889 184 7554ft 287kts
25-Aug-18 21:17 35.878122 -115.314434 185 10579ft 308kts
25-Aug-18 21:18 35.790406 -115.309778 175 13620ft 326kts
25-Aug-18 21:19 35.699827 -115.302677 192 16582ft 335kts
25-Aug-18 21:20 35.624194 -115.365869 226 19345ft 344kts
25-Aug-18 21:21 35.558870 -115.454097 226 21909ft 354kts
25-Aug-18 21:22 35.496039 -115.538723 0 22989ft 0kts
25-Aug-18 21:23 35.430261 -115.627669 226 22988ft 359kts
25-Aug-18 21:24 35.370542 -115.708110 226 24240ft 363kts
25-Aug-18 21:25 35.302317 -115.799697 226 25982ft 371kts
25-Aug-18 21:26 35.230147 -115.896279 226 25993ft 399kts
25-Aug-18 21:27 35.155031 -115.996194 226 25972ft 379kts
25-Aug-18 21:28 35.087368 -116.085920 226 25987ft 356kts
25-Aug-18 21:29 35.020530 -116.174273 225 25989ft 357kts
25-Aug-18 21:30 34.950205 -116.258754 221 25052ft 364kts
25-Aug-18 21:31 34.891450 -116.324745 220 22814ft 363kts
25-Aug-18 21:32 34.816785 -116.412773 222 21201ft 336kts
25-Aug-18 21:33 34.766802 -116.485220 231 20201ft 343kts
25-Aug-18 21:34 34.703282 -116.592763 232 18571ft 337kts
25-Aug-18 21:35 34.662902 -116.660848 231 17501ft 334kts
25-Aug-18 21:36 34.618244 -116.735886 231 16344ft 330kts
25-Aug-18 21:37 34.578043 -116.812584 239 15148ft 326kts
25-Aug-18 21:38 34.537456 -116.901143 231 13819ft 319kts
25-Aug-18 21:39 34.475430 -116.989446 228 12537ft 315kts
25-Aug-18 21:40 34.432045 -117.050226 229 11684ft 312kts
25-Aug-18 21:41 34.379569 -117.123686 229 10652ft 307kts
25-Aug-18 21:42 34.313917 -117.167836 198 9628ft 289kts
25-Aug-18 21:43 34.246708 -117.194312 198 9003ft 277kts
25-Aug-18 21:44 34.181689 -117.215627 176 8912ft 272kts
25-Aug-18 21:45 34.113017 -117.203436 171 7964ft 264kts
25-Aug-18 21:46 34.047609 -117.193361 192 6816ft 236kts
25-Aug-18 21:47 34.020266 -117.241995 281 5528ft 201kts
25-Aug-18 21:48 34.029640 -117.300462 282 4404ft 169kts
25-Aug-18 21:49 34.043125 -117.346186 289 4334ft 150kts
25-Aug-18 21:50 34.053562 -117.392507 279 4013ft 168kts
25-Aug-18 21:51 34.056538 -117.446046 269 3324ft 171kts
25-Aug-18 21:52 34.056205 -117.496143 270 2272ft 147kts
25-Aug-18 21:53 34.056698 -117.539809 269 1554ft 135kts
25-Aug-18 21:54 34.056944 -117.581298 269 1000ft 122kts
25-Aug-18 21:55 34.057534 -117.599712 358 933ft 9kts
25-Aug-18 21:56 34.057698 -117.599714 0 934ft 0kts
25-Aug-18 21:57 34.059012 -117.597669 90 937ft 16kts
25-Aug-18 21:58 34.059007 -117.590654 91 937ft 24kts
25-Aug-18 21:59 34.059490 -117.588493 1 941ft 6kts
25-Aug-18 22:00 34.059947 -117.588501 357 942ft 0kts

Navigation Log

Ident Type
Flight plan parsing failed, navigation log unavailable